< < Back
Terminal Aerodrome Forecast


Current Version              Previous Versions:   1  2  3  4  5  6  7  8  9  

Terminal Aerodrome Forecast

499
FTUS42 KJAX 291604 AAB
TAFJAX
TAF AMD
KJAX 291604Z 2916/3012 VRB04KT P6SM BKN250
     FM291800 17006KT P6SM FEW050 BKN250
     FM300000 21003KT P6SM BKN250
     FM301000 24005KT P6SM BKN100 OVC250=

Latest METAR

337
SAUS80 KWBC 300800
MTRJAX
METAR KJAX 300756Z 00000KT 10SM FEW250 07/05 A3015 RMK AO2 SLP211
T00670050


USA.gov is the U.S. government's official web portal to all federal, state and local government web resources and services.